sensor_id;sensor_type;location;lat;lon;timestamp;P1;durP1;ratioP1;P2;durP2;ratioP2
31746;SDS011;18319;48.974;8.462;2024-01-30T00:01:20;2.23;;;2.13;;
31746;SDS011;18319;48.974;8.462;2024-01-30T00:03:47;2.30;;;2.00;;
31746;SDS011;18319;48.974;8.462;2024-01-30T00:06:17;3.80;;;3.43;;
31746;SDS011;18319;48.974;8.462;2024-01-30T00:08:45;3.77;;;3.47;;
31746;SDS011;18319;48.974;8.462;2024-01-30T00:11:14;3.50;;;3.20;;
31746;SDS011;18319;48.974;8.462;2024-01-30T00:13:41;3.40;;;3.10;;
31746;SDS011;18319;48.974;8.462;2024-01-30T00:16:08;3.60;;;3.30;;
31746;SDS011;18319;48.974;8.462;2024-01-30T00:18:36;3.38;;;3.17;;
31746;SDS011;18319;48.974;8.462;2024-01-30T00:21:04;2.92;;;2.65;;
31746;SDS011;18319;48.974;8.462;2024-01-30T00:23:31;3.00;;;2.80;;
31746;SDS011;18319;48.974;8.462;2024-01-30T00:25:58;3.13;;;2.80;;
31746;SDS011;18319;48.974;8.462;2024-01-30T00:28:25;2.77;;;2.57;;
31746;SDS011;18319;48.974;8.462;2024-01-30T00:30:52;3.10;;;2.37;;
31746;SDS011;18319;48.974;8.462;2024-01-30T00:33:19;3.30;;;2.67;;
31746;SDS011;18319;48.974;8.462;2024-01-30T00:35:48;4.47;;;2.87;;
31746;SDS011;18319;48.974;8.462;2024-01-30T00:38:15;3.13;;;2.83;;
31746;SDS011;18319;48.974;8.462;2024-01-30T00:40:42;3.73;;;3.23;;
31746;SDS011;18319;48.974;8.462;2024-01-30T00:43:09;3.15;;;2.95;;
31746;SDS011;18319;48.974;8.462;2024-01-30T00:45:36;3.13;;;2.83;;
31746;SDS011;18319;48.974;8.462;2024-01-30T00:48:04;4.00;;;3.17;;
31746;SDS011;18319;48.974;8.462;2024-01-30T00:50:31;3.33;;;3.03;;
31746;SDS011;18319;48.974;8.462;2024-01-30T00:52:59;3.53;;;2.97;;
31746;SDS011;18319;48.974;8.462;2024-01-30T00:55:26;2.87;;;2.63;;
31746;SDS011;18319;48.974;8.462;2024-01-30T00:57:53;2.87;;;2.67;;
31746;SDS011;18319;48.974;8.462;2024-01-30T01:00:21;3.20;;;2.90;;
31746;SDS011;18319;48.974;8.462;2024-01-30T01:02:53;3.03;;;2.83;;
31746;SDS011;18319;48.974;8.462;2024-01-30T01:05:21;4.10;;;3.13;;
31746;SDS011;18319;48.974;8.462;2024-01-30T01:07:48;3.73;;;3.43;;
31746;SDS011;18319;48.974;8.462;2024-01-30T01:10:16;4.77;;;3.47;;
31746;SDS011;18319;48.974;8.462;2024-01-30T01:12:44;4.38;;;3.45;;
31746;SDS011;18319;48.974;8.462;2024-01-30T01:15:11;3.47;;;2.97;;
31746;SDS011;18319;48.974;8.462;2024-01-30T01:17:38;3.57;;;3.37;;
31746;SDS011;18319;48.974;8.462;2024-01-30T01:20:06;4.27;;;2.70;;
31746;SDS011;18319;48.974;8.462;2024-01-30T01:22:33;3.73;;;3.43;;
31746;SDS011;18319;48.974;8.462;2024-01-30T01:25:01;3.33;;;3.00;;
31746;SDS011;18319;48.974;8.462;2024-01-30T01:27:29;3.67;;;3.37;;
31746;SDS011;18319;48.974;8.462;2024-01-30T01:29:58;5.05;;;3.47;;
31746;SDS011;18319;48.974;8.462;2024-01-30T01:32:25;3.97;;;3.57;;
31746;SDS011;18319;48.974;8.462;2024-01-30T01:34:52;3.10;;;2.90;;
31746;SDS011;18319;48.974;8.462;2024-01-30T01:37:21;3.17;;;2.97;;
31746;SDS011;18319;48.974;8.462;2024-01-30T01:39:51;4.00;;;3.47;;
31746;SDS011;18319;48.974;8.462;2024-01-30T01:42:18;3.50;;;3.30;;
31746;SDS011;18319;48.974;8.462;2024-01-30T01:44:47;4.80;;;3.30;;
31746;SDS011;18319;48.974;8.462;2024-01-30T01:47:14;3.30;;;3.00;;
31746;SDS011;18319;48.974;8.462;2024-01-30T01:49:41;4.90;;;3.08;;
31746;SDS011;18319;48.974;8.462;2024-01-30T01:52:09;3.00;;;2.80;;
31746;SDS011;18319;48.974;8.462;2024-01-30T01:54:36;3.97;;;3.47;;
31746;SDS011;18319;48.974;8.462;2024-01-30T01:57:04;3.53;;;3.23;;
31746;SDS011;18319;48.974;8.462;2024-01-30T01:59:31;3.80;;;3.20;;
31746;SDS011;18319;48.974;8.462;2024-01-30T02:01:59;4.87;;;2.70;;
31746;SDS011;18319;48.974;8.462;2024-01-30T02:04:27;3.73;;;2.80;;
31746;SDS011;18319;48.974;8.462;2024-01-30T02:06:54;4.47;;;2.80;;
31746;SDS011;18319;48.974;8.462;2024-01-30T02:09:21;3.37;;;3.13;;
31746;SDS011;18319;48.974;8.462;2024-01-30T02:11:48;3.60;;;2.50;;
31746;SDS011;18319;48.974;8.462;2024-01-30T02:14:15;3.23;;;2.60;;
31746;SDS011;18319;48.974;8.462;2024-01-30T02:16:42;3.23;;;3.03;;
31746;SDS011;18319;48.974;8.462;2024-01-30T02:19:11;4.57;;;3.20;;
31746;SDS011;18319;48.974;8.462;2024-01-30T02:21:39;5.13;;;2.60;;
31746;SDS011;18319;48.974;8.462;2024-01-30T02:24:06;3.20;;;2.80;;
31746;SDS011;18319;48.974;8.462;2024-01-30T02:26:33;3.80;;;2.63;;
31746;SDS011;18319;48.974;8.462;2024-01-30T02:29:00;2.78;;;2.50;;
31746;SDS011;18319;48.974;8.462;2024-01-30T02:31:27;5.13;;;2.77;;
31746;SDS011;18319;48.974;8.462;2024-01-30T02:33:54;2.67;;;2.37;;
31746;SDS011;18319;48.974;8.462;2024-01-30T02:36:22;3.70;;;2.60;;
31746;SDS011;18319;48.974;8.462;2024-01-30T02:38:50;2.90;;;2.70;;
31746;SDS011;18319;48.974;8.462;2024-01-30T02:41:17;4.67;;;2.30;;
31746;SDS011;18319;48.974;8.462;2024-01-30T02:43:44;2.87;;;2.27;;
31746;SDS011;18319;48.974;8.462;2024-01-30T02:46:12;4.83;;;2.63;;
31746;SDS011;18319;48.974;8.462;2024-01-30T02:48:39;2.23;;;2.10;;
31746;SDS011;18319;48.974;8.462;2024-01-30T02:51:06;2.40;;;2.20;;
31746;SDS011;18319;48.974;8.462;2024-01-30T02:53:33;2.50;;;2.15;;
31746;SDS011;18319;48.974;8.462;2024-01-30T02:56:02;2.50;;;2.30;;
31746;SDS011;18319;48.974;8.462;2024-01-30T02:58:30;2.33;;;2.13;;
31746;SDS011;18319;48.974;8.462;2024-01-30T03:00:57;2.10;;;1.93;;
31746;SDS011;18319;48.974;8.462;2024-01-30T03:03:25;2.37;;;1.93;;
31746;SDS011;18319;48.974;8.462;2024-01-30T03:05:52;1.90;;;1.80;;
31746;SDS011;18319;48.974;8.462;2024-01-30T03:08:19;2.23;;;1.90;;
31746;SDS011;18319;48.974;8.462;2024-01-30T03:10:46;2.67;;;1.87;;
31746;SDS011;18319;48.974;8.462;2024-01-30T03:13:18;2.00;;;1.80;;
31746;SDS011;18319;48.974;8.462;2024-01-30T03:15:48;2.40;;;2.30;;
31746;SDS011;18319;48.974;8.462;2024-01-30T03:18:15;3.40;;;1.97;;
31746;SDS011;18319;48.974;8.462;2024-01-30T03:23:59;1.90;;;1.80;;
31746;SDS011;18319;48.974;8.462;2024-01-30T03:26:28;2.00;;;1.80;;
31746;SDS011;18319;48.974;8.462;2024-01-30T03:28:56;4.53;;;1.70;;
31746;SDS011;18319;48.974;8.462;2024-01-30T03:31:23;1.63;;;1.53;;
31746;SDS011;18319;48.974;8.462;2024-01-30T03:33:52;1.50;;;1.40;;
31746;SDS011;18319;48.974;8.462;2024-01-30T03:36:27;3.87;;;1.90;;
31746;SDS011;18319;48.974;8.462;2024-01-30T03:39:15;4.23;;;2.07;;
31746;SDS011;18319;48.974;8.462;2024-01-30T03:41:58;1.93;;;1.77;;
31746;SDS011;18319;48.974;8.462;2024-01-30T03:56:49;2.10;;;2.00;;
31746;SDS011;18319;48.974;8.462;2024-01-30T04:17:41;1.60;;;1.50;;
31746;SDS011;18319;48.974;8.462;2024-01-30T04:20:38;4.95;;;2.10;;
31746;SDS011;18319;48.974;8.462;2024-01-30T04:24:07;2.20;;;1.93;;
31746;SDS011;18319;48.974;8.462;2024-01-30T04:51:23;2.30;;;1.93;;
31746;SDS011;18319;48.974;8.462;2024-01-30T05:17:55;2.00;;;1.90;;
31746;SDS011;18319;48.974;8.462;2024-01-30T05:20:22;1.87;;;1.77;;
31746;SDS011;18319;48.974;8.462;2024-01-30T05:22:52;2.63;;;1.80;;
31746;SDS011;18319;48.974;8.462;2024-01-30T05:25:20;2.43;;;2.23;;
31746;SDS011;18319;48.974;8.462;2024-01-30T05:27:47;1.47;;;1.23;;
31746;SDS011;18319;48.974;8.462;2024-01-30T05:30:14;1.60;;;1.50;;
31746;SDS011;18319;48.974;8.462;2024-01-30T05:32:41;1.13;;;1.13;;
31746;SDS011;18319;48.974;8.462;2024-01-30T05:35:09;1.67;;;1.57;;
31746;SDS011;18319;48.974;8.462;2024-01-30T05:37:36;2.00;;;1.80;;
31746;SDS011;18319;48.974;8.462;2024-01-30T05:40:04;2.57;;;1.97;;
31746;SDS011;18319;48.974;8.462;2024-01-30T05:42:31;1.30;;;1.27;;
31746;SDS011;18319;48.974;8.462;2024-01-30T05:44:58;1.63;;;1.53;;
31746;SDS011;18319;48.974;8.462;2024-01-30T05:47:25;1.83;;;1.73;;
31746;SDS011;18319;48.974;8.462;2024-01-30T05:49:52;3.33;;;1.80;;
31746;SDS011;18319;48.974;8.462;2024-01-30T05:52:21;1.40;;;1.30;;
31746;SDS011;18319;48.974;8.462;2024-01-30T05:54:48;1.70;;;1.60;;
31746;SDS011;18319;48.974;8.462;2024-01-30T05:57:16;1.93;;;1.80;;
31746;SDS011;18319;48.974;8.462;2024-01-30T05:59:44;1.80;;;1.47;;
31746;SDS011;18319;48.974;8.462;2024-01-30T06:02:12;1.93;;;1.83;;
31746;SDS011;18319;48.974;8.462;2024-01-30T06:04:39;1.80;;;1.70;;
31746;SDS011;18319;48.974;8.462;2024-01-30T06:07:12;1.60;;;1.50;;
31746;SDS011;18319;48.974;8.462;2024-01-30T06:09:45;2.07;;;1.47;;
31746;SDS011;18319;48.974;8.462;2024-01-30T06:12:16;2.03;;;1.40;;
31746;SDS011;18319;48.974;8.462;2024-01-30T06:14:43;1.73;;;1.63;;
31746;SDS011;18319;48.974;8.462;2024-01-30T06:17:10;2.90;;;1.83;;
31746;SDS011;18319;48.974;8.462;2024-01-30T06:19:37;1.67;;;1.57;;
31746;SDS011;18319;48.974;8.462;2024-01-30T06:22:04;3.13;;;1.70;;
31746;SDS011;18319;48.974;8.462;2024-01-30T06:24:31;2.07;;;1.43;;
31746;SDS011;18319;48.974;8.462;2024-01-30T06:27:01;2.60;;;2.10;;
31746;SDS011;18319;48.974;8.462;2024-01-30T06:29:28;1.60;;;1.50;;
31746;SDS011;18319;48.974;8.462;2024-01-30T06:31:55;1.83;;;1.57;;
31746;SDS011;18319;48.974;8.462;2024-01-30T06:34:22;2.20;;;1.97;;
31746;SDS011;18319;48.974;8.462;2024-01-30T06:36:51;4.80;;;1.60;;
31746;SDS011;18319;48.974;8.462;2024-01-30T06:39:18;2.00;;;1.87;;
31746;SDS011;18319;48.974;8.462;2024-01-30T06:41:45;2.07;;;1.77;;
31746;SDS011;18319;48.974;8.462;2024-01-30T06:44:14;2.03;;;1.40;;
31746;SDS011;18319;48.974;8.462;2024-01-30T06:46:41;2.20;;;2.00;;
31746;SDS011;18319;48.974;8.462;2024-01-30T06:49:08;1.40;;;1.30;;
31746;SDS011;18319;48.974;8.462;2024-01-30T06:51:35;3.93;;;2.80;;
31746;SDS011;18319;48.974;8.462;2024-01-30T06:54:02;3.03;;;2.17;;
31746;SDS011;18319;48.974;8.462;2024-01-30T06:56:29;2.33;;;2.13;;
31746;SDS011;18319;48.974;8.462;2024-01-30T06:58:56;1.83;;;1.73;;
31746;SDS011;18319;48.974;8.462;2024-01-30T07:01:28;2.40;;;1.60;;
31746;SDS011;18319;48.974;8.462;2024-01-30T07:03:55;2.93;;;2.20;;
31746;SDS011;18319;48.974;8.462;2024-01-30T07:06:22;1.90;;;1.80;;
31746;SDS011;18319;48.974;8.462;2024-01-30T07:08:49;3.07;;;2.10;;
31746;SDS011;18319;48.974;8.462;2024-01-30T07:11:18;2.40;;;2.20;;
31746;SDS011;18319;48.974;8.462;2024-01-30T07:13:46;1.93;;;1.83;;
31746;SDS011;18319;48.974;8.462;2024-01-30T07:16:14;3.80;;;1.97;;
31746;SDS011;18319;48.974;8.462;2024-01-30T07:18:42;2.23;;;1.83;;
31746;SDS011;18319;48.974;8.462;2024-01-30T07:21:10;2.03;;;1.93;;
31746;SDS011;18319;48.974;8.462;2024-01-30T07:23:37;4.53;;;2.40;;
31746;SDS011;18319;48.974;8.462;2024-01-30T07:26:04;4.10;;;2.47;;
31746;SDS011;18319;48.974;8.462;2024-01-30T07:28:31;2.50;;;2.30;;
31746;SDS011;18319;48.974;8.462;2024-01-30T07:30:59;2.33;;;2.13;;
31746;SDS011;18319;48.974;8.462;2024-01-30T07:33:26;3.50;;;2.53;;
31746;SDS011;18319;48.974;8.462;2024-01-30T07:35:54;3.37;;;3.00;;
31746;SDS011;18319;48.974;8.462;2024-01-30T07:38:21;3.37;;;3.07;;
31746;SDS011;18319;48.974;8.462;2024-01-30T07:40:49;3.03;;;2.77;;
31746;SDS011;18319;48.974;8.462;2024-01-30T07:43:16;3.63;;;2.67;;
31746;SDS011;18319;48.974;8.462;2024-01-30T07:45:45;4.17;;;3.00;;
31746;SDS011;18319;48.974;8.462;2024-01-30T07:48:12;3.47;;;3.17;;
31746;SDS011;18319;48.974;8.462;2024-01-30T07:50:39;3.70;;;2.90;;
31746;SDS011;18319;48.974;8.462;2024-01-30T07:53:08;4.90;;;2.83;;
31746;SDS011;18319;48.974;8.462;2024-01-30T07:55:35;5.77;;;2.90;;
31746;SDS011;18319;48.974;8.462;2024-01-30T07:58:02;6.50;;;3.63;;
31746;SDS011;18319;48.974;8.462;2024-01-30T08:00:29;3.27;;;3.00;;
31746;SDS011;18319;48.974;8.462;2024-01-30T08:02:57;2.67;;;2.47;;
31746;SDS011;18319;48.974;8.462;2024-01-30T08:05:24;2.73;;;2.53;;
31746;SDS011;18319;48.974;8.462;2024-01-30T08:07:51;2.80;;;2.60;;
31746;SDS011;18319;48.974;8.462;2024-01-30T08:10:19;3.40;;;3.10;;
31746;SDS011;18319;48.974;8.462;2024-01-30T08:12:47;3.70;;;2.90;;
31746;SDS011;18319;48.974;8.462;2024-01-30T08:15:14;2.60;;;2.47;;
31746;SDS011;18319;48.974;8.462;2024-01-30T08:17:41;2.50;;;2.03;;
31746;SDS011;18319;48.974;8.462;2024-01-30T08:20:07;3.53;;;2.30;;
31746;SDS011;18319;48.974;8.462;2024-01-30T08:22:37;3.17;;;2.87;;
31746;SDS011;18319;48.974;8.462;2024-01-30T08:25:05;2.77;;;2.57;;
31746;SDS011;18319;48.974;8.462;2024-01-30T08:27:34;3.00;;;2.80;;
31746;SDS011;18319;48.974;8.462;2024-01-30T08:30:03;4.03;;;2.53;;
31746;SDS011;18319;48.974;8.462;2024-01-30T08:32:31;4.47;;;4.10;;
31746;SDS011;18319;48.974;8.462;2024-01-30T08:34:58;6.10;;;5.47;;
31746;SDS011;18319;48.974;8.462;2024-01-30T08:37:28;5.43;;;4.27;;
31746;SDS011;18319;48.974;8.462;2024-01-30T08:39:55;3.60;;;3.30;;
31746;SDS011;18319;48.974;8.462;2024-01-30T08:42:22;6.13;;;3.92;;
31746;SDS011;18319;48.974;8.462;2024-01-30T08:44:51;3.97;;;3.70;;
31746;SDS011;18319;48.974;8.462;2024-01-30T08:47:19;4.37;;;4.00;;
31746;SDS011;18319;48.974;8.462;2024-01-30T08:49:46;4.60;;;4.20;;
31746;SDS011;18319;48.974;8.462;2024-01-30T08:52:13;4.13;;;3.75;;
31746;SDS011;18319;48.974;8.462;2024-01-30T08:54:40;4.57;;;3.10;;
31746;SDS011;18319;48.974;8.462;2024-01-30T08:57:07;3.50;;;3.17;;
31746;SDS011;18319;48.974;8.462;2024-01-30T08:59:34;3.80;;;3.50;;
31746;SDS011;18319;48.974;8.462;2024-01-30T09:02:03;6.13;;;3.40;;
31746;SDS011;18319;48.974;8.462;2024-01-30T09:04:30;3.13;;;2.93;;
31746;SDS011;18319;48.974;8.462;2024-01-30T09:06:57;3.87;;;3.57;;
31746;SDS011;18319;48.974;8.462;2024-01-30T09:09:24;4.10;;;3.45;;
31746;SDS011;18319;48.974;8.462;2024-01-30T09:11:52;3.50;;;3.30;;
31746;SDS011;18319;48.974;8.462;2024-01-30T09:14:19;4.50;;;4.10;;
31746;SDS011;18319;48.974;8.462;2024-01-30T09:16:46;3.97;;;3.67;;
31746;SDS011;18319;48.974;8.462;2024-01-30T09:19:15;4.50;;;4.10;;
31746;SDS011;18319;48.974;8.462;2024-01-30T09:21:42;3.55;;;3.28;;
31746;SDS011;18319;48.974;8.462;2024-01-30T09:24:09;5.40;;;3.22;;
31746;SDS011;18319;48.974;8.462;2024-01-30T09:26:36;4.03;;;3.63;;
31746;SDS011;18319;48.974;8.462;2024-01-30T09:29:03;4.30;;;3.90;;
31746;SDS011;18319;48.974;8.462;2024-01-30T09:31:31;4.10;;;3.50;;
31746;SDS011;18319;48.974;8.462;2024-01-30T09:33:58;4.57;;;3.83;;
31746;SDS011;18319;48.974;8.462;2024-01-30T09:36:26;3.65;;;3.35;;
31746;SDS011;18319;48.974;8.462;2024-01-30T09:38:53;3.60;;;3.30;;
31746;SDS011;18319;48.974;8.462;2024-01-30T09:41:20;4.50;;;3.38;;
31746;SDS011;18319;48.974;8.462;2024-01-30T09:43:50;4.07;;;3.40;;
31746;SDS011;18319;48.974;8.462;2024-01-30T09:46:17;4.53;;;4.13;;
31746;SDS011;18319;48.974;8.462;2024-01-30T09:48:45;5.53;;;5.13;;
31746;SDS011;18319;48.974;8.462;2024-01-30T09:51:13;5.15;;;4.38;;
31746;SDS011;18319;48.974;8.462;2024-01-30T09:53:43;5.45;;;4.95;;
31746;SDS011;18319;48.974;8.462;2024-01-30T09:56:10;4.10;;;3.80;;
31746;SDS011;18319;48.974;8.462;2024-01-30T09:58:37;4.28;;;3.97;;
31746;SDS011;18319;48.974;8.462;2024-01-30T10:01:04;3.75;;;3.50;;
31746;SDS011;18319;48.974;8.462;2024-01-30T10:03:32;4.05;;;3.70;;
31746;SDS011;18319;48.974;8.462;2024-01-30T10:05:59;3.70;;;3.13;;
31746;SDS011;18319;48.974;8.462;2024-01-30T10:08:26;3.60;;;3.30;;
31746;SDS011;18319;48.974;8.462;2024-01-30T10:10:56;3.80;;;3.55;;
31746;SDS011;18319;48.974;8.462;2024-01-30T10:13:23;3.38;;;3.15;;
31746;SDS011;18319;48.974;8.462;2024-01-30T10:15:50;3.63;;;3.33;;
31746;SDS011;18319;48.974;8.462;2024-01-30T10:18:17;3.65;;;3.00;;
31746;SDS011;18319;48.974;8.462;2024-01-30T10:20:44;3.00;;;2.80;;
31746;SDS011;18319;48.974;8.462;2024-01-30T10:23:11;9.32;;;6.28;;
31746;SDS011;18319;48.974;8.462;2024-01-30T10:25:39;11.68;;;7.88;;
31746;SDS011;18319;48.974;8.462;2024-01-30T10:28:08;13.05;;;8.88;;
31746;SDS011;18319;48.974;8.462;2024-01-30T10:30:35;10.95;;;8.18;;
31746;SDS011;18319;48.974;8.462;2024-01-30T10:33:02;7.90;;;7.13;;
31746;SDS011;18319;48.974;8.462;2024-01-30T10:35:29;8.38;;;6.82;;
31746;SDS011;18319;48.974;8.462;2024-01-30T10:37:56;8.93;;;7.63;;
31746;SDS011;18319;48.974;8.462;2024-01-30T10:40:25;8.85;;;6.97;;
31746;SDS011;18319;48.974;8.462;2024-01-30T10:42:54;8.93;;;8.02;;
31746;SDS011;18319;48.974;8.462;2024-01-30T10:45:23;9.10;;;7.18;;
31746;SDS011;18319;48.974;8.462;2024-01-30T10:47:54;8.82;;;6.88;;
31746;SDS011;18319;48.974;8.462;2024-01-30T10:50:22;8.50;;;7.30;;
31746;SDS011;18319;48.974;8.462;2024-01-30T10:52:51;8.93;;;8.07;;
31746;SDS011;18319;48.974;8.462;2024-01-30T10:55:19;7.32;;;6.57;;
31746;SDS011;18319;48.974;8.462;2024-01-30T10:57:48;9.20;;;7.53;;
31746;SDS011;18319;48.974;8.462;2024-01-30T11:00:16;8.68;;;6.80;;
31746;SDS011;18319;48.974;8.462;2024-01-30T11:02:48;8.07;;;7.13;;
31746;SDS011;18319;48.974;8.462;2024-01-30T11:05:23;9.02;;;5.55;;
31746;SDS011;18319;48.974;8.462;2024-01-30T11:07:51;6.47;;;5.30;;
31746;SDS011;18319;48.974;8.462;2024-01-30T11:10:18;6.15;;;5.57;;
31746;SDS011;18319;48.974;8.462;2024-01-30T11:12:45;6.85;;;6.20;;
31746;SDS011;18319;48.974;8.462;2024-01-30T11:15:15;10.88;;;6.55;;
31746;SDS011;18319;48.974;8.462;2024-01-30T11:17:43;7.63;;;5.70;;
31746;SDS011;18319;48.974;8.462;2024-01-30T11:20:11;6.45;;;5.40;;
31746;SDS011;18319;48.974;8.462;2024-01-30T11:22:40;5.60;;;4.50;;
31746;SDS011;18319;48.974;8.462;2024-01-30T11:25:10;7.68;;;5.88;;
31746;SDS011;18319;48.974;8.462;2024-01-30T11:27:38;6.15;;;5.53;;
31746;SDS011;18319;48.974;8.462;2024-01-30T11:30:06;5.97;;;5.32;;
31746;SDS011;18319;48.974;8.462;2024-01-30T11:32:33;7.90;;;5.50;;
31746;SDS011;18319;48.974;8.462;2024-01-30T11:35:00;5.55;;;5.05;;
31746;SDS011;18319;48.974;8.462;2024-01-30T11:37:32;5.43;;;4.93;;
31746;SDS011;18319;48.974;8.462;2024-01-30T11:39:59;5.38;;;4.85;;
31746;SDS011;18319;48.974;8.462;2024-01-30T11:42:26;6.00;;;5.40;;
31746;SDS011;18319;48.974;8.462;2024-01-30T11:44:53;5.43;;;4.85;;
31746;SDS011;18319;48.974;8.462;2024-01-30T11:47:22;6.85;;;5.05;;
31746;SDS011;18319;48.974;8.462;2024-01-30T11:49:49;5.90;;;4.47;;
31746;SDS011;18319;48.974;8.462;2024-01-30T11:52:16;7.18;;;4.88;;
31746;SDS011;18319;48.974;8.462;2024-01-30T11:54:45;5.88;;;4.95;;
31746;SDS011;18319;48.974;8.462;2024-01-30T11:57:12;6.03;;;4.60;;
31746;SDS011;18319;48.974;8.462;2024-01-30T11:59:39;4.93;;;4.43;;
31746;SDS011;18319;48.974;8.462;2024-01-30T12:02:06;4.85;;;4.45;;
31746;SDS011;18319;48.974;8.462;2024-01-30T12:04:33;7.13;;;5.57;;
31746;SDS011;18319;48.974;8.462;2024-01-30T12:07:00;6.70;;;5.38;;
31746;SDS011;18319;48.974;8.462;2024-01-30T12:09:27;4.82;;;4.40;;
31746;SDS011;18319;48.974;8.462;2024-01-30T12:11:56;6.90;;;4.60;;
31746;SDS011;18319;48.974;8.462;2024-01-30T12:14:23;7.10;;;5.18;;
31746;SDS011;18319;48.974;8.462;2024-01-30T12:16:51;4.63;;;4.13;;
31746;SDS011;18319;48.974;8.462;2024-01-30T12:19:21;5.38;;;4.90;;
31746;SDS011;18319;48.974;8.462;2024-01-30T12:21:53;5.05;;;4.63;;
31746;SDS011;18319;48.974;8.462;2024-01-30T12:24:21;6.97;;;4.80;;
31746;SDS011;18319;48.974;8.462;2024-01-30T12:26:48;5.55;;;4.25;;
31746;SDS011;18319;48.974;8.462;2024-01-30T12:29:16;4.70;;;4.20;;
31746;SDS011;18319;48.974;8.462;2024-01-30T12:31:44;5.32;;;4.78;;
31746;SDS011;18319;48.974;8.462;2024-01-30T12:34:13;4.63;;;4.22;;
31746;SDS011;18319;48.974;8.462;2024-01-30T12:36:42;6.03;;;4.70;;
31746;SDS011;18319;48.974;8.462;2024-01-30T12:39:10;4.95;;;4.55;;
31746;SDS011;18319;48.974;8.462;2024-01-30T12:41:39;5.72;;;5.05;;
31746;SDS011;18319;48.974;8.462;2024-01-30T12:44:06;6.28;;;4.78;;
31746;SDS011;18319;48.974;8.462;2024-01-30T12:46:35;6.28;;;5.65;;
31746;SDS011;18319;48.974;8.462;2024-01-30T12:49:02;5.65;;;5.03;;
31746;SDS011;18319;48.974;8.462;2024-01-30T12:51:29;5.10;;;4.68;;
31746;SDS011;18319;48.974;8.462;2024-01-30T12:53:56;5.70;;;5.05;;
31746;SDS011;18319;48.974;8.462;2024-01-30T12:56:23;7.05;;;5.32;;
31746;SDS011;18319;48.974;8.462;2024-01-30T12:58:51;7.03;;;5.05;;
31746;SDS011;18319;48.974;8.462;2024-01-30T13:01:18;5.53;;;5.05;;
31746;SDS011;18319;48.974;8.462;2024-01-30T13:03:46;5.75;;;5.07;;
31746;SDS011;18319;48.974;8.462;2024-01-30T13:06:13;6.03;;;5.53;;
31746;SDS011;18319;48.974;8.462;2024-01-30T13:08:40;6.25;;;5.65;;
31746;SDS011;18319;48.974;8.462;2024-01-30T13:11:07;9.10;;;5.10;;
31746;SDS011;18319;48.974;8.462;2024-01-30T13:13:35;6.68;;;5.53;;
31746;SDS011;18319;48.974;8.462;2024-01-30T13:16:02;7.85;;;5.07;;
31746;SDS011;18319;48.974;8.462;2024-01-30T13:18:29;5.80;;;5.10;;
31746;SDS011;18319;48.974;8.462;2024-01-30T13:20:57;5.90;;;5.35;;
31746;SDS011;18319;48.974;8.462;2024-01-30T13:23:24;7.70;;;5.85;;
31746;SDS011;18319;48.974;8.462;2024-01-30T13:25:52;5.95;;;5.35;;
31746;SDS011;18319;48.974;8.462;2024-01-30T13:28:22;6.90;;;6.40;;
31746;SDS011;18319;48.974;8.462;2024-01-30T13:30:51;6.18;;;5.00;;
31746;SDS011;18319;48.974;8.462;2024-01-30T13:33:18;6.72;;;5.90;;
31746;SDS011;18319;48.974;8.462;2024-01-30T13:35:45;7.93;;;5.20;;
31746;SDS011;18319;48.974;8.462;2024-01-30T13:38:14;6.05;;;5.53;;
31746;SDS011;18319;48.974;8.462;2024-01-30T13:40:41;7.07;;;5.72;;
31746;SDS011;18319;48.974;8.462;2024-01-30T13:43:08;7.10;;;6.40;;
31746;SDS011;18319;48.974;8.462;2024-01-30T13:45:35;7.85;;;6.47;;
31746;SDS011;18319;48.974;8.462;2024-01-30T13:48:02;7.03;;;6.20;;
31746;SDS011;18319;48.974;8.462;2024-01-30T13:50:29;11.65;;;5.70;;
31746;SDS011;18319;48.974;8.462;2024-01-30T13:52:58;7.35;;;6.60;;
31746;SDS011;18319;48.974;8.462;2024-01-30T13:55:26;7.40;;;6.45;;
31746;SDS011;18319;48.974;8.462;2024-01-30T13:57:53;10.15;;;6.85;;
31746;SDS011;18319;48.974;8.462;2024-01-30T14:00:20;7.85;;;7.15;;
31746;SDS011;18319;48.974;8.462;2024-01-30T14:02:48;7.50;;;6.60;;
31746;SDS011;18319;48.974;8.462;2024-01-30T14:05:15;6.75;;;6.15;;
31746;SDS011;18319;48.974;8.462;2024-01-30T14:07:43;8.38;;;6.57;;
31746;SDS011;18319;48.974;8.462;2024-01-30T14:10:10;6.85;;;6.25;;
31746;SDS011;18319;48.974;8.462;2024-01-30T14:12:39;7.47;;;6.78;;
31746;SDS011;18319;48.974;8.462;2024-01-30T14:15:07;10.20;;;6.55;;
31746;SDS011;18319;48.974;8.462;2024-01-30T14:17:35;7.63;;;6.80;;
31746;SDS011;18319;48.974;8.462;2024-01-30T14:20:03;11.57;;;7.47;;
31746;SDS011;18319;48.974;8.462;2024-01-30T14:22:30;6.75;;;6.15;;
31746;SDS011;18319;48.974;8.462;2024-01-30T14:24:57;8.55;;;6.88;;
31746;SDS011;18319;48.974;8.462;2024-01-30T14:27:24;6.72;;;6.00;;
31746;SDS011;18319;48.974;8.462;2024-01-30T14:29:53;7.50;;;6.50;;
31746;SDS011;18319;48.974;8.462;2024-01-30T14:32:20;7.20;;;6.60;;
31746;SDS011;18319;48.974;8.462;2024-01-30T14:34:48;8.52;;;7.38;;
31746;SDS011;18319;48.974;8.462;2024-01-30T14:37:15;9.05;;;7.00;;
31746;SDS011;18319;48.974;8.462;2024-01-30T14:39:42;9.02;;;8.23;;
31746;SDS011;18319;48.974;8.462;2024-01-30T14:42:09;11.07;;;7.85;;
31746;SDS011;18319;48.974;8.462;2024-01-30T14:44:37;7.70;;;6.63;;
31746;SDS011;18319;48.974;8.462;2024-01-30T14:47:05;9.05;;;7.85;;
31746;SDS011;18319;48.974;8.462;2024-01-30T14:49:33;9.43;;;8.25;;
31746;SDS011;18319;48.974;8.462;2024-01-30T14:52:00;8.75;;;7.63;;
31746;SDS011;18319;48.974;8.462;2024-01-30T14:54:29;13.70;;;7.70;;
31746;SDS011;18319;48.974;8.462;2024-01-30T14:56:56;8.82;;;8.02;;
31746;SDS011;18319;48.974;8.462;2024-01-30T14:59:24;8.93;;;8.02;;
31746;SDS011;18319;48.974;8.462;2024-01-30T15:01:52;8.30;;;7.50;;
31746;SDS011;18319;48.974;8.462;2024-01-30T15:04:20;8.07;;;7.28;;
31746;SDS011;18319;48.974;8.462;2024-01-30T15:06:47;8.98;;;7.32;;
31746;SDS011;18319;48.974;8.462;2024-01-30T15:09:14;17.27;;;12.38;;
31746;SDS011;18319;48.974;8.462;2024-01-30T15:11:43;9.07;;;8.10;;
31746;SDS011;18319;48.974;8.462;2024-01-30T15:14:12;13.07;;;11.30;;
31746;SDS011;18319;48.974;8.462;2024-01-30T15:16:39;12.23;;;9.20;;
31746;SDS011;18319;48.974;8.462;2024-01-30T15:19:06;10.63;;;7.40;;
31746;SDS011;18319;48.974;8.462;2024-01-30T15:21:34;8.57;;;7.05;;
31746;SDS011;18319;48.974;8.462;2024-01-30T15:24:02;9.00;;;6.15;;
31746;SDS011;18319;48.974;8.462;2024-01-30T15:26:29;7.88;;;6.00;;
31746;SDS011;18319;48.974;8.462;2024-01-30T15:28:56;7.82;;;6.70;;
31746;SDS011;18319;48.974;8.462;2024-01-30T15:31:25;7.32;;;5.85;;
31746;SDS011;18319;48.974;8.462;2024-01-30T15:33:52;8.15;;;6.47;;
31746;SDS011;18319;48.974;8.462;2024-01-30T15:36:19;8.77;;;6.35;;
31746;SDS011;18319;48.974;8.462;2024-01-30T15:38:48;5.97;;;5.32;;
31746;SDS011;18319;48.974;8.462;2024-01-30T15:41:15;6.78;;;5.45;;
31746;SDS011;18319;48.974;8.462;2024-01-30T15:43:42;6.35;;;5.55;;
31746;SDS011;18319;48.974;8.462;2024-01-30T15:46:09;8.35;;;5.78;;
31746;SDS011;18319;48.974;8.462;2024-01-30T15:48:36;7.13;;;6.43;;
31746;SDS011;18319;48.974;8.462;2024-01-30T15:51:03;10.90;;;5.60;;
31746;SDS011;18319;48.974;8.462;2024-01-30T15:53:30;7.07;;;5.30;;
31746;SDS011;18319;48.974;8.462;2024-01-30T15:55:59;9.20;;;5.57;;
31746;SDS011;18319;48.974;8.462;2024-01-30T15:58:26;6.32;;;5.22;;
31746;SDS011;18319;48.974;8.462;2024-01-30T16:00:53;5.88;;;5.20;;
31746;SDS011;18319;48.974;8.462;2024-01-30T16:03:20;6.10;;;4.95;;
31746;SDS011;18319;48.974;8.462;2024-01-30T16:05:47;5.40;;;4.90;;
31746;SDS011;18319;48.974;8.462;2024-01-30T16:08:14;7.18;;;4.65;;
31746;SDS011;18319;48.974;8.462;2024-01-30T16:10:41;8.38;;;5.72;;
31746;SDS011;18319;48.974;8.462;2024-01-30T16:13:11;5.60;;;5.10;;
31746;SDS011;18319;48.974;8.462;2024-01-30T16:15:38;5.97;;;5.47;;